Time;durP1;ratioP1;P1;durP2;ratioP2;P2;SDS_P1;SDS_P2;PMS_P1;PMS_P2;Temp;Humidity;BMP_temperature;BMP_pressure;BME280_temperature;BME280_humidity;BME280_pressure;Samples;Min_cycle;Max_cycle;Signal;HPM_P1;HPM_P2
2022/08/31 00:05:11;;;;;;;4.37;4.17;;;20.80;99.90;;;;;;5063527;28;20251;-49
2022/08/31 00:07:38;;;;;;;3.67;3.47;;;20.70;99.90;;;;;;5070961;28;20236;-49
2022/08/31 00:10:13;;;;;;;3.67;3.37;;;20.70;99.90;;;;;;5070963;28;20233;-49
2022/08/31 00:12:41;;;;;;;4.07;3.77;;;20.70;99.90;;;;;;5070765;28;20216;-50
2022/08/31 00:15:10;;;;;;;4.10;3.80;;;20.60;99.90;;;;;;5073705;28;20573;-49
2022/08/31 00:17:36;;;;;;;3.33;3.13;;;20.50;99.90;;;;;;5066953;28;20197;-47
2022/08/31 00:20:04;;;;;;;4.50;4.10;;;20.40;99.90;;;;;;5073816;28;20694;-49
2022/08/31 00:22:33;;;;;;;4.13;3.83;;;20.40;99.90;;;;;;5073936;28;20211;-49
2022/08/31 00:25:00;;;;;;;3.30;3.10;;;20.40;99.90;;;;;;5071516;28;20197;-48
2022/08/31 00:27:27;;;;;;;3.70;3.40;;;20.20;99.90;;;;;;5073964;28;20270;-50
2022/08/31 00:29:54;;;;;;;3.70;3.40;;;20.20;99.90;;;;;;5073972;28;20208;-49
2022/08/31 00:32:21;;;;;;;4.13;3.77;;;20.20;99.90;;;;;;5064642;28;20274;-48
2022/08/31 00:34:48;;;;;;;3.53;3.43;;;20.20;99.90;;;;;;5071680;28;20658;-48
2022/08/31 00:37:15;;;;;;;3.37;3.27;;;20.20;99.90;;;;;;5073814;28;20252;-49
2022/08/31 00:39:43;;;;;;;3.87;3.57;;;20.20;99.90;;;;;;5067379;28;20226;-49
2022/08/31 00:42:11;;;;;;;3.60;3.40;;;20.10;99.90;;;;;;5072880;28;20201;-48
2022/08/31 00:44:38;;;;;;;4.20;3.83;;;20.10;99.90;;;;;;5065322;28;20197;-49
2022/08/31 00:47:06;;;;;;;4.00;3.70;;;20.10;99.90;;;;;;5068743;28;20221;-48
2022/08/31 00:49:37;;;;;;;3.73;3.43;;;20.00;99.90;;;;;;5068405;28;20197;-48
2022/08/31 00:52:09;;;;;;;4.00;3.70;;;20.00;99.90;;;;;;5068091;28;20203;-48
2022/08/31 00:54:39;;;;;;;3.27;2.97;;;19.90;99.90;;;;;;5071068;28;20545;-48
2022/08/31 00:57:09;;;;;;;3.30;3.20;;;19.80;99.90;;;;;;5068856;28;20221;-48
2022/08/31 00:59:37;;;;;;;4.53;4.13;;;19.80;99.90;;;;;;5066751;28;20210;-48
2022/08/31 01:02:05;;;;;;;4.03;3.83;;;19.80;99.90;;;;;;5072576;28;20284;-49
2022/08/31 01:04:32;;;;;;;3.67;3.47;;;19.80;99.90;;;;;;5072059;28;20739;-49
2022/08/31 01:07:00;;;;;;;3.17;3.00;;;19.80;99.90;;;;;;5072190;28;20296;-49
2022/08/31 01:09:30;;;;;;;2.97;2.77;;;19.80;99.90;;;;;;5073006;28;20274;-49
2022/08/31 01:11:57;;;;;;;4.40;4.10;;;19.80;99.90;;;;;;5070034;28;20202;-49
2022/08/31 01:14:26;;;;;;;4.17;3.97;;;19.80;99.90;;;;;;5073084;28;20217;-48
2022/08/31 01:16:55;;;;;;;4.17;3.97;;;19.80;99.90;;;;;;5073337;28;20221;-49
2022/08/31 01:19:30;;;;;;;3.20;3.10;;;19.80;99.90;;;;;;5073188;28;20616;-48
2022/08/31 01:22:04;;;;;;;4.87;4.47;;;19.70;99.90;;;;;;5069707;28;20680;-49
2022/08/31 01:24:34;;;;;;;4.83;4.43;;;19.60;99.90;;;;;;5072459;28;20209;-49
2022/08/31 01:27:03;;;;;;;3.73;3.43;;;19.50;99.90;;;;;;5072032;28;20225;-49
2022/08/31 01:29:31;;;;;;;3.93;3.83;;;19.40;99.90;;;;;;5068740;28;20193;-48
2022/08/31 01:31:58;;;;;;;3.67;3.47;;;19.40;99.90;;;;;;5072976;28;20201;-49
2022/08/31 01:34:25;;;;;;;3.63;3.43;;;19.30;99.90;;;;;;5065074;28;20605;-48
2022/08/31 01:36:52;;;;;;;4.90;4.70;;;19.30;99.90;;;;;;5072396;28;20706;-48
2022/08/31 01:39:20;;;;;;;4.47;4.17;;;19.30;99.90;;;;;;5072038;28;20331;-49
2022/08/31 01:41:49;;;;;;;4.17;3.90;;;19.30;99.90;;;;;;5072026;28;20198;-48
2022/08/31 01:44:19;;;;;;;3.83;3.73;;;19.30;99.90;;;;;;5071462;28;20220;-49
2022/08/31 01:46:47;;;;;;;3.57;3.47;;;19.30;99.90;;;;;;5069970;28;20291;-48
2022/08/31 01:49:16;;;;;;;3.40;3.30;;;19.30;99.90;;;;;;5071555;28;20198;-48
2022/08/31 01:51:43;;;;;;;4.67;4.37;;;19.20;99.90;;;;;;5071369;28;20197;-49
2022/08/31 01:54:11;;;;;;;3.70;3.40;;;19.20;99.90;;;;;;5069224;28;20263;-49
2022/08/31 01:56:41;;;;;;;3.93;3.73;;;19.20;99.90;;;;;;5071097;28;20278;-49
2022/08/31 01:59:11;;;;;;;4.83;4.47;;;19.20;99.90;;;;;;5070432;28;20258;-49
2022/08/31 02:01:40;;;;;;;4.47;4.23;;;19.20;99.90;;;;;;5072005;28;20189;-49
2022/08/31 02:04:09;;;;;;;4.67;4.47;;;19.20;99.90;;;;;;5063852;28;20201;-49
2022/08/31 02:06:37;;;;;;;10.10;6.33;;;19.20;99.90;;;;;;5070953;28;20714;-48
2022/08/31 02:09:06;;;;;;;4.70;4.30;;;19.20;99.90;;;;;;5064351;28;20201;-49
2022/08/31 02:11:33;;;;;;;4.73;4.43;;;19.20;99.90;;;;;;5070888;28;20259;-48
2022/08/31 02:14:00;;;;;;;4.80;4.47;;;19.30;99.90;;;;;;5071778;28;20213;-49
2022/08/31 02:16:28;;;;;;;4.97;4.70;;;19.30;99.90;;;;;;5071908;28;20217;-48
2022/08/31 02:18:55;;;;;;;4.83;4.63;;;19.40;99.90;;;;;;5070215;28;20671;-48
2022/08/31 02:21:23;;;;;;;6.23;5.93;;;19.40;99.90;;;;;;5065623;28;20255;-48
2022/08/31 02:23:50;;;;;;;5.60;5.10;;;19.50;99.90;;;;;;5063834;28;20266;-50
2022/08/31 02:26:17;;;;;;;6.17;5.67;;;19.50;99.90;;;;;;5071735;28;20228;-49
2022/08/31 02:28:44;;;;;;;6.20;5.70;;;19.50;99.90;;;;;;5071961;28;20254;-49
2022/08/31 02:31:11;;;;;;;7.23;6.73;;;19.40;99.90;;;;;;5071796;28;20259;-49
2022/08/31 02:33:40;;;;;;;6.37;6.07;;;19.40;99.90;;;;;;5064307;28;20221;-48
2022/08/31 02:36:07;;;;;;;7.70;7.20;;;19.30;99.90;;;;;;5067854;28;20270;-49
2022/08/31 02:38:37;;;;;;;6.57;6.07;;;19.30;99.90;;;;;;5071626;28;20201;-49
2022/08/31 02:41:04;;;;;;;6.90;6.43;;;19.20;99.90;;;;;;5069904;28;20279;-49
2022/08/31 02:43:32;;;;;;;6.50;5.93;;;19.20;99.90;;;;;;5067141;28;20272;-50
2022/08/31 02:45:59;;;;;;;6.73;6.23;;;19.20;99.90;;;;;;5070020;28;20586;-49
2022/08/31 02:48:26;;;;;;;6.37;5.93;;;19.20;99.90;;;;;;5070580;28;20201;-48
2022/08/31 02:50:54;;;;;;;6.33;5.83;;;19.20;99.90;;;;;;5070486;28;20288;-48
2022/08/31 02:53:23;;;;;;;6.77;6.27;;;19.20;99.90;;;;;;5071160;28;20221;-49
2022/08/31 02:55:50;;;;;;;6.87;6.23;;;19.10;99.90;;;;;;5068229;28;20229;-48
2022/08/31 02:58:17;;;;;;;7.23;6.77;;;19.10;99.90;;;;;;5071155;28;20197;-49
2022/08/31 03:00:46;;;;;;;6.03;5.63;;;19.20;99.90;;;;;;5061013;28;20198;-49
2022/08/31 03:03:16;;;;;;;6.23;5.80;;;19.10;99.90;;;;;;5071215;28;20259;-48
2022/08/31 03:05:43;;;;;;;6.57;5.97;;;19.10;99.90;;;;;;5071343;28;20253;-49
2022/08/31 03:08:14;;;;;;;6.37;5.90;;;19.10;99.90;;;;;;5068326;28;20232;-49
2022/08/31 03:10:41;;;;;;;5.77;5.47;;;19.10;99.90;;;;;;5071188;28;20670;-49
2022/08/31 03:13:11;;;;;;;6.30;6.00;;;19.00;99.90;;;;;;5069383;28;20221;-49
2022/08/31 03:15:38;;;;;;;6.17;5.77;;;19.00;99.90;;;;;;5070102;28;20655;-48
2022/08/31 03:18:05;;;;;;;6.23;5.50;;;18.90;99.90;;;;;;5065373;28;20651;-48
2022/08/31 03:20:32;;;;;;;5.93;5.43;;;18.90;99.90;;;;;;5066052;28;20189;-49
2022/08/31 03:22:59;;;;;;;6.10;5.70;;;18.90;99.90;;;;;;5069110;28;20273;-47
2022/08/31 03:25:27;;;;;;;5.80;5.40;;;19.00;99.90;;;;;;5063307;28;20201;-49
2022/08/31 03:27:54;;;;;;;5.70;5.30;;;19.00;99.90;;;;;;5070052;28;20735;-48
2022/08/31 03:30:22;;;;;;;5.27;4.87;;;19.00;99.90;;;;;;5071153;28;20650;-49
2022/08/31 03:32:50;;;;;;;5.37;5.07;;;19.00;99.90;;;;;;5066075;28;20255;-48
2022/08/31 03:35:17;;;;;;;5.77;5.40;;;18.90;99.90;;;;;;5070056;28;20209;-49
2022/08/31 03:37:45;;;;;;;6.13;5.70;;;18.90;99.90;;;;;;5069959;28;20288;-49
2022/08/31 03:40:12;;;;;;;6.10;5.70;;;18.90;99.90;;;;;;5064795;28;20278;-48
2022/08/31 03:42:41;;;;;;;4.70;4.50;;;18.90;99.90;;;;;;5071121;28;20251;-47
2022/08/31 03:45:09;;;;;;;5.27;4.87;;;18.80;99.90;;;;;;5073728;28;20205;-48
2022/08/31 03:47:37;;;;;;;5.87;5.57;;;18.80;99.90;;;;;;5073862;28;20267;-48
2022/08/31 03:50:06;;;;;;;5.47;5.07;;;18.90;99.90;;;;;;5072536;28;20197;-48
2022/08/31 03:52:33;;;;;;;4.83;4.53;;;18.90;99.90;;;;;;5074549;28;20193;-48
2022/08/31 03:55:00;;;;;;;5.90;5.37;;;18.80;99.90;;;;;;5071508;28;20698;-49
2022/08/31 03:57:27;;;;;;;5.83;5.50;;;18.80;99.90;;;;;;5074596;28;20216;-48
2022/08/31 03:59:57;;;;;;;7.03;6.47;;;18.90;99.90;;;;;;5074630;28;20209;-49
2022/08/31 04:02:24;;;;;;;6.13;5.70;;;18.80;99.90;;;;;;5072154;28;20281;-48
2022/08/31 04:04:52;;;;;;;6.37;5.83;;;18.70;99.90;;;;;;5056856;28;20255;-48
2022/08/31 04:07:19;;;;;;;6.37;5.87;;;18.70;99.90;;;;;;5074380;28;20303;-49
2022/08/31 04:09:47;;;;;;;6.33;5.93;;;18.70;99.90;;;;;;5073043;28;20198;-48
2022/08/31 04:12:14;;;;;;;7.83;6.43;;;18.70;99.90;;;;;;5073443;28;20193;-49
2022/08/31 04:14:42;;;;;;;6.10;5.80;;;18.60;99.90;;;;;;5074049;28;20944;-49
2022/08/31 04:17:12;;;;;;;6.50;5.93;;;18.60;99.90;;;;;;5060303;28;20240;-48
2022/08/31 04:19:40;;;;;;;7.70;6.87;;;18.50;99.90;;;;;;5062318;28;20205;-48
2022/08/31 04:22:07;;;;;;;7.23;6.73;;;18.40;99.90;;;;;;5063225;28;20206;-48
2022/08/31 04:24:34;;;;;;;6.20;5.80;;;18.30;99.90;;;;;;5069570;28;20726;-48
2022/08/31 04:27:01;;;;;;;6.80;6.17;;;18.20;99.90;;;;;;5064857;28;20590;-48
2022/08/31 04:29:28;;;;;;;6.77;6.27;;;18.30;99.90;;;;;;5066490;28;20201;-48
2022/08/31 04:31:56;;;;;;;7.37;6.77;;;18.30;99.90;;;;;;5061138;28;20671;-49
2022/08/31 04:34:24;;;;;;;6.53;6.13;;;18.20;99.90;;;;;;5054497;28;20221;-48
2022/08/31 04:36:51;;;;;;;6.43;6.03;;;18.20;99.90;;;;;;5060758;28;20221;-49
2022/08/31 04:39:19;;;;;;;7.50;6.93;;;18.20;99.90;;;;;;5059508;28;20189;-47
2022/08/31 04:41:47;;;;;;;6.80;6.30;;;18.20;99.90;;;;;;5060435;28;20212;-48
2022/08/31 04:44:15;;;;;;;7.97;7.37;;;18.20;99.90;;;;;;5062219;28;20197;-49
2022/08/31 04:46:42;;;;;;;7.77;7.23;;;18.20;99.90;;;;;;5063918;28;20217;-49
2022/08/31 04:49:13;;;;;;;8.07;7.30;;;18.20;99.90;;;;;;5065789;28;20205;-48
2022/08/31 04:51:42;;;;;;;7.97;7.37;;;18.10;99.90;;;;;;5063347;28;20193;-48
2022/08/31 04:54:11;;;;;;;10.53;8.43;;;18.20;99.90;;;;;;5063524;28;20209;-47
2022/08/31 04:56:40;;;;;;;8.33;7.53;;;18.20;99.90;;;;;;5063532;28;20243;-48
2022/08/31 04:59:09;;;;;;;8.93;8.00;;;18.10;99.90;;;;;;5066076;28;20213;-48
2022/08/31 05:01:39;;;;;;;9.23;8.50;;;18.20;99.90;;;;;;5055927;28;20259;-48
2022/08/31 05:04:06;;;;;;;8.30;7.57;;;18.10;99.90;;;;;;5053949;28;21028;-47
2022/08/31 05:06:36;;;;;;;9.53;7.83;;;18.10;99.90;;;;;;5052501;28;20213;-48
2022/08/31 05:09:06;;;;;;;8.63;7.77;;;18.20;99.90;;;;;;5052848;28;20729;-48
2022/08/31 05:11:33;;;;;;;8.23;7.53;;;18.10;99.90;;;;;;5056631;28;20213;-48
2022/08/31 05:14:03;;;;;;;8.27;7.57;;;18.20;99.90;;;;;;5062935;28;20237;-48
2022/08/31 05:16:33;;;;;;;7.43;6.83;;;18.20;99.90;;;;;;5054611;28;20224;-49
2022/08/31 05:19:01;;;;;;;8.00;7.30;;;18.20;99.90;;;;;;5056553;28;20627;-48
2022/08/31 05:21:31;;;;;;;7.87;7.27;;;18.20;99.90;;;;;;5052299;28;20281;-48
2022/08/31 05:24:00;;;;;;;8.53;7.83;;;18.20;99.90;;;;;;5052050;28;20189;-49
2022/08/31 05:26:31;;;;;;;9.00;7.77;;;18.10;99.90;;;;;;5052973;28;20284;-47
2022/08/31 05:28:59;;;;;;;8.40;7.80;;;18.20;99.90;;;;;;5056540;28;20260;-48
2022/08/31 05:31:28;;;;;;;8.93;8.07;;;18.20;99.90;;;;;;5057349;28;20198;-47
2022/08/31 05:33:56;;;;;;;7.40;6.80;;;18.20;99.90;;;;;;5069191;28;20313;-48
2022/08/31 05:36:23;;;;;;;8.30;7.70;;;18.30;99.90;;;;;;5070918;28;20225;-47
2022/08/31 05:38:52;;;;;;;8.43;7.83;;;18.30;99.90;;;;;;5071707;28;20205;-49
2022/08/31 05:41:20;;;;;;;9.30;8.60;;;18.30;99.90;;;;;;5070249;28;20201;-47
2022/08/31 05:43:48;;;;;;;9.43;8.53;;;18.20;99.90;;;;;;5072162;28;20283;-49
2022/08/31 05:46:16;;;;;;;7.93;7.33;;;18.20;99.90;;;;;;5071691;28;20217;-48
2022/08/31 05:48:44;;;;;;;9.60;8.67;;;18.20;99.90;;;;;;5068441;28;20217;-49
2022/08/31 05:51:13;;;;;;;7.50;6.83;;;18.10;99.90;;;;;;5063353;28;20220;-47
2022/08/31 05:53:41;;;;;;;8.00;7.23;;;18.10;99.90;;;;;;5056249;28;20194;-47
2022/08/31 05:56:10;;;;;;;8.20;7.50;;;18.20;99.90;;;;;;5053273;28;20641;-48
2022/08/31 05:58:39;;;;;;;6.40;5.90;;;18.10;99.90;;;;;;5051971;28;20206;-48
2022/08/31 06:01:13;;;;;;;7.10;6.60;;;18.20;99.90;;;;;;5051957;28;20220;-48
2022/08/31 06:03:41;;;;;;;6.57;6.03;;;18.10;99.90;;;;;;5059053;28;20197;-48
2022/08/31 06:06:09;;;;;;;5.50;5.17;;;18.10;99.90;;;;;;5059242;28;20217;-48
2022/08/31 06:08:37;;;;;;;5.27;4.97;;;18.10;99.90;;;;;;5050833;28;20232;-48
2022/08/31 06:11:05;;;;;;;6.33;5.80;;;18.20;99.90;;;;;;5051624;28;20204;-48
2022/08/31 06:13:33;;;;;;;6.50;5.97;;;18.20;99.90;;;;;;5051253;28;20251;-48
2022/08/31 06:16:02;;;;;;;6.77;6.13;;;18.20;99.90;;;;;;5051092;28;20634;-49
2022/08/31 06:18:31;;;;;;;6.40;5.90;;;18.30;99.90;;;;;;5054073;28;20201;-47
2022/08/31 06:21:02;;;;;;;6.40;5.73;;;18.20;99.90;;;;;;5054930;28;20197;-48
2022/08/31 06:23:29;;;;;;;6.30;5.70;;;18.20;99.90;;;;;;5058932;28;20198;-47
2022/08/31 06:26:02;;;;;;;5.07;4.87;;;18.20;99.90;;;;;;5051506;28;20214;-47
2022/08/31 06:28:31;;;;;;;6.40;6.00;;;18.20;99.90;;;;;;5051463;28;20197;-48
2022/08/31 06:30:59;;;;;;;6.03;5.53;;;18.10;99.90;;;;;;5051436;28;20221;-48
2022/08/31 06:33:26;;;;;;;6.07;5.67;;;18.00;99.90;;;;;;5060325;28;20243;-48
2022/08/31 06:35:54;;;;;;;5.33;4.93;;;18.00;99.90;;;;;;5065178;28;20229;-48
2022/08/31 06:38:21;;;;;;;5.60;5.30;;;18.10;99.90;;;;;;5069719;28;20204;-48
2022/08/31 06:40:48;;;;;;;4.40;4.20;;;18.10;99.90;;;;;;5071019;28;20239;-49
2022/08/31 06:43:15;;;;;;;5.90;5.53;;;18.10;99.90;;;;;;5069126;28;20280;-48
2022/08/31 06:45:42;;;;;;;6.10;5.60;;;18.20;99.90;;;;;;5069699;28;20217;-49
2022/08/31 06:48:12;;;;;;;6.37;5.77;;;18.20;99.90;;;;;;5063262;28;20202;-48
2022/08/31 06:50:40;;;;;;;7.60;6.83;;;18.20;99.90;;;;;;5068904;28;20200;-48
2022/08/31 06:53:09;;;;;;;7.10;6.50;;;18.30;99.90;;;;;;5067392;28;20193;-49
2022/08/31 06:55:35;;;;;;;6.03;5.53;;;18.20;99.90;;;;;;5071379;28;20270;-49
2022/08/31 06:58:03;;;;;;;7.10;6.70;;;18.20;99.90;;;;;;5071363;28;20749;-48
2022/08/31 07:00:32;;;;;;;6.90;6.50;;;18.20;99.90;;;;;;5071546;28;20262;-48
2022/08/31 07:03:21;;;;;;;8.60;7.93;;;18.20;99.90;;;;;;5071332;28;20204;-48
2022/08/31 07:05:46;;;;;;;7.80;7.23;;;18.20;99.90;;;;;;5069271;28;20597;-48
2022/08/31 07:08:15;;;;;;;8.07;7.37;;;18.10;99.90;;;;;;5067120;28;20728;-49
2022/08/31 07:10:42;;;;;;;7.27;6.77;;;18.10;99.90;;;;;;5063158;28;20201;-48
2022/08/31 07:13:09;;;;;;;7.57;7.00;;;18.20;99.90;;;;;;5071176;28;20284;-48
2022/08/31 07:15:36;;;;;;;8.60;6.53;;;18.20;99.90;;;;;;5071044;28;20714;-48
2022/08/31 07:18:03;;;;;;;7.03;6.53;;;18.20;99.90;;;;;;5068658;28;20197;-48
2022/08/31 07:20:30;;;;;;;6.43;6.00;;;18.30;99.90;;;;;;5070416;28;20194;-47
2022/08/31 07:22:57;;;;;;;7.27;6.77;;;18.40;99.90;;;;;;5062824;28;20209;-48
2022/08/31 07:25:26;;;;;;;6.87;6.20;;;18.40;99.90;;;;;;5066908;28;20251;-49
2022/08/31 07:27:54;;;;;;;6.93;6.40;;;18.40;99.90;;;;;;5064649;28;20201;-48
2022/08/31 07:30:21;;;;;;;7.07;6.57;;;18.50;99.90;;;;;;5055213;28;20244;-48
2022/08/31 07:32:50;;;;;;;7.00;6.40;;;18.70;99.90;;;;;;5052343;28;20199;-48
2022/08/31 07:35:18;;;;;;;7.33;6.43;;;18.70;99.90;;;;;;5054143;28;20213;-48
2022/08/31 07:43:15;;;;;;;7.40;6.77;;;18.60;99.90;;;;;;5064137;28;20209;-47
2022/08/31 07:45:42;;;;;;;8.83;7.50;;;18.60;99.90;;;;;;5054377;28;20784;-48
2022/08/31 07:48:12;;;;;;;7.80;7.07;;;18.60;99.90;;;;;;5050401;28;20197;-48
2022/08/31 07:50:43;;;;;;;8.37;7.47;;;18.60;99.90;;;;;;5050475;28;20614;-47
2022/08/31 07:53:13;;;;;;;7.63;7.13;;;18.50;99.90;;;;;;5050144;28;20205;-48
2022/08/31 07:55:44;;;;;;;7.80;7.10;;;18.40;99.90;;;;;;5049913;28;20253;-48
2022/08/31 07:58:16;;;;;;;9.47;8.33;;;18.50;99.90;;;;;;5055296;28;20897;-49
2022/08/31 08:00:47;;;;;;;9.37;8.53;;;18.40;99.90;;;;;;5063740;28;20229;-47
2022/08/31 08:03:14;;;;;;;9.37;8.50;;;18.40;99.90;;;;;;5067817;28;20204;-49
2022/08/31 08:05:42;;;;;;;9.90;9.10;;;18.30;99.90;;;;;;5068170;28;20824;-49
2022/08/31 08:08:13;;;;;;;8.80;8.00;;;18.40;99.90;;;;;;5070144;28;20582;-49
2022/08/31 08:10:46;;;;;;;8.90;8.20;;;18.30;99.90;;;;;;5070141;28;20197;-48
2022/08/31 08:13:18;;;;;;;10.60;9.70;;;18.20;99.90;;;;;;5070194;28;20740;-48
2022/08/31 08:15:46;;;;;;;10.40;9.47;;;18.10;99.90;;;;;;5063023;28;20221;-48
2022/08/31 08:18:14;;;;;;;9.20;8.47;;;18.20;99.90;;;;;;5070905;28;20205;-48
2022/08/31 08:20:40;;;;;;;9.63;8.67;;;18.20;99.90;;;;;;5070048;28;20200;-48
2022/08/31 08:23:11;;;;;;;9.77;8.87;;;18.30;99.90;;;;;;5069430;28;20251;-49
2022/08/31 08:25:38;;;;;;;10.00;9.17;;;18.40;99.90;;;;;;5070626;28;20632;-49
2022/08/31 08:28:06;;;;;;;10.23;9.33;;;18.40;99.90;;;;;;5070960;28;20624;-48
2022/08/31 08:30:34;;;;;;;10.47;9.63;;;18.30;99.90;;;;;;5063460;28;20247;-48
2022/08/31 08:33:02;;;;;;;9.73;8.93;;;18.40;99.90;;;;;;5073987;28;20667;-48
2022/08/31 08:35:30;;;;;;;10.40;9.47;;;18.30;99.90;;;;;;5062731;28;20222;-48
2022/08/31 08:37:57;;;;;;;10.17;9.40;;;18.30;99.90;;;;;;5060922;28;20204;-49
2022/08/31 08:40:30;;;;;;;10.90;10.00;;;18.20;99.90;;;;;;5065400;28;20193;-49
2022/08/31 08:42:58;;;;;;;10.00;9.17;;;18.30;99.90;;;;;;5074002;28;20201;-50
2022/08/31 08:45:27;;;;;;;10.73;9.77;;;18.30;99.90;;;;;;5073677;28;20629;-49
2022/08/31 08:47:55;;;;;;;11.37;10.30;;;18.30;99.90;;;;;;5073921;28;20197;-49
2022/08/31 08:50:25;;;;;;;10.47;9.60;;;18.40;99.90;;;;;;5070744;28;20292;-48
2022/08/31 08:52:52;;;;;;;10.80;9.90;;;18.50;99.90;;;;;;5060656;28;20578;-49
2022/08/31 08:55:34;;;;;;;11.53;10.37;;;18.60;99.90;;;;;;5073654;28;20286;-49
2022/08/31 08:58:04;;;;;;;11.00;10.10;;;18.70;99.90;;;;;;5073759;28;20642;-48
2022/08/31 09:00:33;;;;;;;10.27;9.50;;;18.70;99.90;;;;;;5073659;28;20212;-47
2022/08/31 09:03:06;;;;;;;11.90;10.90;;;18.70;99.90;;;;;;5073381;28;20696;-49
2022/08/31 09:05:52;;;;;;;11.17;10.27;;;18.80;99.90;;;;;;5071392;28;20228;-49
2022/08/31 09:08:38;;;;;;;12.13;11.03;;;18.80;99.90;;;;;;5072036;28;20243;-48
2022/08/31 09:11:16;;;;;;;12.10;11.10;;;18.80;99.90;;;;;;5055571;28;20205;-48
2022/08/31 09:13:54;;;;;;;11.70;10.70;;;19.00;99.90;;;;;;5065361;28;20197;-48
2022/08/31 09:16:37;;;;;;;12.93;11.83;;;19.00;99.90;;;;;;5072256;28;20216;-48
2022/08/31 09:19:08;;;;;;;11.93;11.03;;;19.10;99.90;;;;;;5064238;28;20574;-49
2022/08/31 09:21:39;;;;;;;12.73;11.60;;;19.00;99.90;;;;;;5071481;28;20717;-49
2022/08/31 09:24:08;;;;;;;12.13;11.03;;;19.00;99.90;;;;;;5064888;28;20208;-48
2022/08/31 09:26:53;;;;;;;11.57;10.67;;;18.80;99.90;;;;;;5068213;28;20247;-49
2022/08/31 09:29:23;;;;;;;11.57;10.53;;;18.70;99.90;;;;;;5072982;28;20217;-50
2022/08/31 09:32:01;;;;;;;11.13;10.10;;;18.70;99.90;;;;;;5071875;28;20197;-49
2022/08/31 09:34:31;;;;;;;11.53;10.33;;;18.70;99.90;;;;;;5071681;28;20193;-48
2022/08/31 09:37:15;;;;;;;11.27;10.47;;;18.70;99.90;;;;;;5072410;28;20265;-48
2022/08/31 09:39:46;;;;;;;10.93;10.03;;;18.60;99.90;;;;;;5062484;28;20276;-49
2022/08/31 09:42:22;;;;;;;11.33;10.53;;;18.50;99.90;;;;;;5053594;28;20206;-48
2022/08/31 09:44:50;;;;;;;12.63;11.30;;;18.50;99.90;;;;;;5069904;28;20212;-48
2022/08/31 09:50:10;;;;;;;12.63;11.53;;;18.50;99.90;;;;;;5082638;28;20638;-49
2022/08/31 09:55:26;;;;;;;12.90;11.80;;;18.80;99.90;;;;;;5082489;28;20671;-50
2022/08/31 09:57:57;;;;;;;10.27;9.37;;;19.10;99.90;;;;;;5066352;28;20198;-50
2022/08/31 10:00:39;;;;;;;11.73;10.67;;;19.30;99.90;;;;;;5072135;28;20706;-49
2022/08/31 10:03:12;;;;;;;10.43;9.63;;;19.40;99.90;;;;;;5075231;28;20199;-50
2022/08/31 10:05:43;;;;;;;9.97;9.27;;;19.40;99.90;;;;;;5082556;28;20224;-48
2022/08/31 10:08:27;;;;;;;8.97;8.37;;;19.50;99.90;;;;;;5061938;28;20217;-49
2022/08/31 10:10:57;;;;;;;9.73;8.83;;;19.40;99.90;;;;;;5065492;28;20578;-50
2022/08/31 10:13:36;;;;;;;8.60;8.00;;;19.50;99.90;;;;;;5060054;28;20377;-49
2022/08/31 10:16:13;;;;;;;9.03;8.43;;;19.60;99.90;;;;;;5058999;28;20640;-49
2022/08/31 10:18:51;;;;;;;8.87;8.27;;;19.60;99.90;;;;;;5064632;28;20201;-50
2022/08/31 10:21:25;;;;;;;8.33;7.77;;;19.50;99.90;;;;;;5065203;28;20202;-49
2022/08/31 10:24:17;;;;;;;8.83;8.03;;;19.50;99.90;;;;;;5067123;28;20246;-49
2022/08/31 10:26:52;;;;;;;8.13;7.60;;;19.50;99.90;;;;;;5067808;28;20232;-49
2022/08/31 10:29:28;;;;;;;9.47;8.77;;;19.50;99.90;;;;;;5066753;28;20225;-49
2022/08/31 10:31:59;;;;;;;8.43;7.87;;;19.60;99.90;;;;;;5066814;28;20728;-50
2022/08/31 10:37:30;;;;;;;8.67;7.97;;;19.80;99.90;;;;;;5058766;28;20228;-49
2022/08/31 10:40:04;;;;;;;8.83;8.17;;;19.70;99.90;;;;;;5068040;28;20629;-50
2022/08/31 10:42:37;;;;;;;8.80;8.30;;;19.60;99.90;;;;;;5065531;28;20209;-49
2022/08/31 10:45:10;;;;;;;9.77;9.10;;;19.40;99.90;;;;;;5059883;28;20201;-49
2022/08/31 10:47:43;;;;;;;8.00;7.50;;;19.30;99.90;;;;;;5067774;28;20848;-49
2022/08/31 10:50:15;;;;;;;10.57;9.67;;;19.30;99.90;;;;;;5067953;28;20279;-49
2022/08/31 10:52:54;;;;;;;9.53;8.80;;;19.30;99.90;;;;;;5066316;28;20237;-49
2022/08/31 10:55:31;;;;;;;8.97;8.27;;;19.10;99.90;;;;;;5067326;28;20663;-50
2022/08/31 10:58:11;;;;;;;8.23;7.57;;;19.10;99.90;;;;;;5067640;28;20204;-49
2022/08/31 11:00:47;;;;;;;7.73;7.23;;;19.10;99.90;;;;;;5059414;28;20229;-49
2022/08/31 11:03:21;;;;;;;7.77;7.37;;;19.00;99.90;;;;;;5052778;28;20201;-50
2022/08/31 11:05:54;;;;;;;7.90;7.30;;;19.10;99.90;;;;;;5050735;28;20257;-50
2022/08/31 11:08:48;;;;;;;8.83;8.23;;;19.10;99.90;;;;;;5045411;28;20260;-49
2022/08/31 11:11:23;;;;;;;8.43;7.93;;;19.20;99.90;;;;;;5042288;28;20202;-49
2022/08/31 11:14:17;;;;;;;7.33;6.87;;;19.20;99.90;;;;;;5053486;28;20295;-49
2022/08/31 11:17:03;;;;;;;6.87;6.47;;;19.20;99.90;;;;;;5053791;28;20754;-49
2022/08/31 11:19:53;;;;;;;7.17;6.67;;;19.30;99.90;;;;;;5051968;28;20208;-50
2022/08/31 11:22:51;;;;;;;7.43;6.97;;;19.40;99.90;;;;;;5047327;28;20271;-49
2022/08/31 11:25:46;;;;;;;8.10;7.50;;;19.50;99.90;;;;;;5030479;28;20209;-49
2022/08/31 11:28:30;;;;;;;6.10;5.77;;;19.40;99.90;;;;;;5031472;28;20216;-49
2022/08/31 11:31:00;;;;;;;5.90;5.60;;;19.30;99.90;;;;;;5053949;28;20202;-49
2022/08/31 11:33:28;;;;;;;5.80;5.40;;;19.10;99.90;;;;;;5051238;28;20201;-50
2022/08/31 11:36:04;;;;;;;6.57;6.17;;;19.10;99.90;;;;;;5053554;28;20776;-50
2022/08/31 11:39:10;;;;;;;6.23;5.93;;;19.10;99.90;;;;;;5053814;28;20205;-50
2022/08/31 11:41:45;;;;;;;5.30;5.00;;;19.20;99.90;;;;;;5043223;28;20202;-49
2022/08/31 11:44:59;;;;;;;6.80;6.23;;;19.10;99.90;;;;;;5046733;28;20198;-49
2022/08/31 11:47:37;;;;;;;6.37;5.87;;;19.10;99.90;;;;;;5006462;28;20316;-49
2022/08/31 11:50:11;;;;;;;6.07;5.63;;;19.10;99.90;;;;;;5053317;28;20299;-48
2022/08/31 11:52:46;;;;;;;6.30;5.90;;;19.00;99.90;;;;;;5043659;28;20256;-48
2022/08/31 11:55:25;;;;;;;6.50;6.10;;;19.00;99.90;;;;;;5052260;28;20224;-50
2022/08/31 11:58:32;;;;;;;6.77;6.27;;;19.00;99.90;;;;;;5042270;28;20240;-50
2022/08/31 12:01:23;;;;;;;5.43;5.13;;;19.10;99.90;;;;;;5052958;28;20201;-50
2022/08/31 12:03:54;;;;;;;5.13;4.93;;;19.20;99.90;;;;;;5049177;28;20202;-50
2022/08/31 12:07:10;;;;;;;5.50;5.10;;;19.30;99.90;;;;;;5053793;28;20747;-51
2022/08/31 12:10:15;;;;;;;6.10;5.53;;;19.40;99.90;;;;;;5053344;28;20317;-49
2022/08/31 12:12:58;;;;;;;6.90;6.30;;;19.40;99.90;;;;;;5048966;28;20559;-49
2022/08/31 12:15:36;;;;;;;6.63;6.30;;;19.30;99.90;;;;;;5051874;28;20201;-49
2022/08/31 12:18:17;;;;;;;6.73;6.33;;;19.40;99.90;;;;;;5044950;28;20259;-49
2022/08/31 12:23:55;;;;;;;7.50;6.77;;;19.40;99.90;;;;;;5049179;28;20208;-49
2022/08/31 12:26:39;;;;;;;8.00;7.43;;;19.40;99.90;;;;;;5036388;28;20280;-49
2022/08/31 12:29:28;;;;;;;8.50;7.90;;;19.30;99.90;;;;;;5051309;28;20259;-50
2022/08/31 12:32:20;;;;;;;7.63;7.03;;;19.20;99.90;;;;;;5039168;28;20202;-49
2022/08/31 12:34:50;;;;;;;8.83;8.23;;;19.10;99.90;;;;;;5052597;28;20547;-50
2022/08/31 12:37:23;;;;;;;7.20;6.77;;;19.10;99.90;;;;;;5052679;28;20229;-49
2022/08/31 12:40:06;;;;;;;7.67;7.17;;;19.10;99.90;;;;;;5052416;28;20194;-49
2022/08/31 12:42:35;;;;;;;7.47;6.87;;;19.10;99.90;;;;;;5050520;28;20209;-49
2022/08/31 12:45:03;;;;;;;7.47;6.97;;;19.30;99.90;;;;;;5049932;28;20271;-50
2022/08/31 12:47:40;;;;;;;7.30;6.73;;;19.40;99.90;;;;;;5052139;28;20588;-49
2022/08/31 12:50:14;;;;;;;7.97;7.53;;;19.50;99.90;;;;;;5052236;28;20221;-49
2022/08/31 12:53:04;;;;;;;7.40;6.67;;;19.60;99.90;;;;;;5050088;28;20205;-50
2022/08/31 12:55:38;;;;;;;7.83;7.27;;;19.70;99.90;;;;;;5047909;28;20672;-50
2022/08/31 12:58:22;;;;;;;8.13;7.50;;;19.70;99.90;;;;;;5051977;28;20201;-49
2022/08/31 13:00:50;;;;;;;8.17;7.57;;;19.70;99.90;;;;;;5043086;28;20194;-48
2022/08/31 13:03:23;;;;;;;6.70;6.23;;;19.70;99.90;;;;;;5051954;28;20212;-49
2022/08/31 13:06:05;;;;;;;9.13;8.43;;;19.80;99.90;;;;;;5042442;28;20226;-50
2022/08/31 13:08:36;;;;;;;7.93;7.33;;;19.90;99.90;;;;;;5051961;28;20347;-49
2022/08/31 13:11:15;;;;;;;8.17;7.50;;;19.80;99.90;;;;;;5052135;28;20584;-49
2022/08/31 13:13:42;;;;;;;8.33;7.83;;;19.70;99.90;;;;;;5051793;28;20233;-50
2022/08/31 13:16:12;;;;;;;8.30;7.60;;;19.90;99.90;;;;;;5050177;28;20655;-49
2022/08/31 13:18:41;;;;;;;9.90;9.10;;;19.90;99.90;;;;;;5051042;28;20628;-48
2022/08/31 13:21:09;;;;;;;8.60;8.00;;;19.90;99.90;;;;;;5052291;28;20198;-49
2022/08/31 13:23:39;;;;;;;8.73;8.00;;;20.10;99.90;;;;;;5050737;28;20240;-48
2022/08/31 13:26:13;;;;;;;9.30;8.60;;;20.10;99.90;;;;;;5051522;28;20214;-50
2022/08/31 13:28:41;;;;;;;9.73;8.93;;;20.00;99.90;;;;;;5049675;28;20236;-49